This is the latest recevied weather packets stored in our database for station/object DB0NU-15. If no packets are shown the sender has not sent any weather packets the latest 10 day(s).
| Time | Temp. | Humidity | Pressure | Rain* | Wind** | Luminosity | Snow |
|---|---|---|---|---|---|---|---|
| 1777857649 | 14.44° C | 62% | 1015.1 hPa | 0 mm | - | - | - |
| 1777857045 | 15° C | 59% | 1015.2 hPa | 0 mm | - | - | - |
| 1777856442 | 14.44° C | 61% | 1015.1 hPa | 0 mm | - | - | - |
| 1777855235 | 14.44° C | 64% | 1015.1 hPa | 0 mm | - | - | - |
| 1777854631 | 14.44° C | 63% | 1015.2 hPa | 0 mm | - | - | - |
| 1777854028 | 14.44° C | 64% | 1015.1 hPa | 0 mm | - | - | - |
| 1777853425 | 14.44° C | 64% | 1015.1 hPa | 0 mm | - | - | - |
| 1777852821 | 14.44° C | 64% | 1015.1 hPa | 0 mm | - | - | - |
| 1777852218 | 14.44° C | 65% | 1015.1 hPa | 0 mm | - | - | - |
| 1777851675 | 15° C | 63% | 1015.2 hPa | 0 mm | - | - | - |
| 1777851070 | 15° C | 62% | 1015 hPa | 0 mm | - | - | - |
| 1777850467 | 15° C | 62% | 1015.1 hPa | 0 mm | - | - | - |
| 1777849863 | 15° C | 63% | 1015.1 hPa | 0 mm | - | - | - |
| 1777848658 | 15.56° C | 61% | 1014.8 hPa | 0 mm | - | - | - |
| 1777848053 | 15.56° C | 61% | 1014.7 hPa | 0 mm | - | - | - |
| 1777847450 | 15.56° C | 63% | 1015 hPa | 0 mm | - | - | - |
| 1777846243 | 15.56° C | 61% | 1014.9 hPa | 0 mm | - | - | - |
| 1777845036 | 16.11° C | 58% | 1014.8 hPa | 0 mm | - | - | - |
| 1777843830 | 16.11° C | 59% | 1014.5 hPa | 0 mm | - | - | - |
| 1777843226 | 16.11° C | 59% | 1014.4 hPa | 0 mm | - | - | - |
| 1777842623 | 16.67° C | 58% | 1014.3 hPa | 0 mm | - | - | - |
| 1777842019 | 16.67° C | 58% | 1014.3 hPa | 0 mm | - | - | - |
| 1777840873 | 17.22° C | 55% | 1014.3 hPa | 0 mm | - | - | - |
| 1777840269 | 17.22° C | 54% | 1014 hPa | 0 mm | - | - | - |
| 1777839666 | 17.22° C | 56% | 1013.9 hPa | 0 mm | - | - | - |
* Rain latest hour (hover to see other rain measurements)
** Current wind speed in m/s (hover to see current wind gust speed)